Terminal Aerodrome Forecast
Issued by NWS

Home | Current Version | Previous Version | Graphics & Text | Print | Product List | Glossary On
Versions: 1 2 3 4 5 6 7 8 9 10 11 12 13 14 15 16 17 18 19
299
FTUS43 KMPX 292331
TAFAXN
TAF
KAXN 292331Z 3000/3024 31005KT 3SM -SN BR OVC008
      TEMPO 3000/3004 1 1/2SM -SN OVC004
     FM300400 33005KT 1 1/2SM -SN BR OVC004
     FM301800 34009KT 2SM -SN OVC008=

USA.gov is the U.S. government's official web portal to all federal, state and local government web resources and services.